sensor_id;sensor_type;location;lat;lon;timestamp;temperature;humidity
44695;DHT22;32845;59.422;17.930;2024-03-06T00:01:53;-0.40;99.90
44695;DHT22;32845;59.422;17.930;2024-03-06T00:06:24;-0.40;99.90
44695;DHT22;32845;59.422;17.930;2024-03-06T00:10:55;-0.50;99.90
44695;DHT22;32845;59.422;17.930;2024-03-06T00:15:25;-0.50;99.90
44695;DHT22;32845;59.422;17.930;2024-03-06T00:19:56;-0.50;99.90
44695;DHT22;32845;59.422;17.930;2024-03-06T00:24:26;-0.50;99.90
44695;DHT22;32845;59.422;17.930;2024-03-06T00:28:57;-0.60;99.90
44695;DHT22;32845;59.422;17.930;2024-03-06T00:33:28;-0.60;99.90
44695;DHT22;32845;59.422;17.930;2024-03-06T00:37:58;-0.60;99.90
44695;DHT22;32845;59.422;17.930;2024-03-06T00:42:32;-0.60;99.90
44695;DHT22;32845;59.422;17.930;2024-03-06T00:47:03;-0.70;99.90
44695;DHT22;32845;59.422;17.930;2024-03-06T00:51:34;-0.70;99.90
44695;DHT22;32845;59.422;17.930;2024-03-06T00:56:07;-0.70;99.90
44695;DHT22;32845;59.422;17.930;2024-03-06T01:00:38;-0.70;99.90
44695;DHT22;32845;59.422;17.930;2024-03-06T01:05:09;-0.80;99.90
44695;DHT22;32845;59.422;17.930;2024-03-06T01:09:40;-0.80;99.90
44695;DHT22;32845;59.422;17.930;2024-03-06T01:14:10;-0.80;99.90
44695;DHT22;32845;59.422;17.930;2024-03-06T01:18:41;-0.80;99.90
44695;DHT22;32845;59.422;17.930;2024-03-06T01:23:11;-0.90;99.90
44695;DHT22;32845;59.422;17.930;2024-03-06T01:27:42;-0.90;99.90
44695;DHT22;32845;59.422;17.930;2024-03-06T01:32:13;-0.90;99.90
44695;DHT22;32845;59.422;17.930;2024-03-06T01:36:43;-0.90;99.90
44695;DHT22;32845;59.422;17.930;2024-03-06T01:41:14;-1.00;99.90
44695;DHT22;32845;59.422;17.930;2024-03-06T01:45:45;-1.00;99.90
44695;DHT22;32845;59.422;17.930;2024-03-06T01:50:17;-1.00;99.90
44695;DHT22;32845;59.422;17.930;2024-03-06T01:54:49;-1.00;99.90
44695;DHT22;32845;59.422;17.930;2024-03-06T01:59:25;-1.00;99.90
44695;DHT22;32845;59.422;17.930;2024-03-06T02:03:57;-1.00;99.90
44695;DHT22;32845;59.422;17.930;2024-03-06T02:08:27;-1.00;99.90
44695;DHT22;32845;59.422;17.930;2024-03-06T02:12:58;-1.00;99.90
44695;DHT22;32845;59.422;17.930;2024-03-06T02:17:29;-1.00;99.90
44695;DHT22;32845;59.422;17.930;2024-03-06T02:21:59;-1.00;99.90
44695;DHT22;32845;59.422;17.930;2024-03-06T02:26:30;-1.00;99.90
44695;DHT22;32845;59.422;17.930;2024-03-06T02:31:00;-0.90;99.90
44695;DHT22;32845;59.422;17.930;2024-03-06T02:35:32;-0.90;99.90
44695;DHT22;32845;59.422;17.930;2024-03-06T02:40:03;-0.90;99.90
44695;DHT22;32845;59.422;17.930;2024-03-06T02:44:37;-0.80;99.90
44695;DHT22;32845;59.422;17.930;2024-03-06T02:49:08;-0.80;99.90
44695;DHT22;32845;59.422;17.930;2024-03-06T02:53:38;-0.80;99.90
44695;DHT22;32845;59.422;17.930;2024-03-06T02:58:09;-0.80;99.90
44695;DHT22;32845;59.422;17.930;2024-03-06T03:02:39;-0.80;99.90
44695;DHT22;32845;59.422;17.930;2024-03-06T03:07:10;-0.80;99.90
44695;DHT22;32845;59.422;17.930;2024-03-06T03:11:42;-0.70;99.90
44695;DHT22;32845;59.422;17.930;2024-03-06T03:16:18;-0.70;99.90
44695;DHT22;32845;59.422;17.930;2024-03-06T03:20:48;-0.70;99.90
44695;DHT22;32845;59.422;17.930;2024-03-06T03:25:19;-0.70;99.90
44695;DHT22;32845;59.422;17.930;2024-03-06T03:29:52;-0.70;99.90
44695;DHT22;32845;59.422;17.930;2024-03-06T03:34:23;-0.60;99.90
44695;DHT22;32845;59.422;17.930;2024-03-06T03:38:53;-0.70;99.90
44695;DHT22;32845;59.422;17.930;2024-03-06T03:43:24;-0.70;99.90
44695;DHT22;32845;59.422;17.930;2024-03-06T03:47:55;-0.70;99.90
44695;DHT22;32845;59.422;17.930;2024-03-06T03:52:25;-0.70;99.90
44695;DHT22;32845;59.422;17.930;2024-03-06T03:56:56;-0.70;99.90
44695;DHT22;32845;59.422;17.930;2024-03-06T04:01:28;-0.70;99.90
44695;DHT22;32845;59.422;17.930;2024-03-06T04:05:59;-0.70;99.90
44695;DHT22;32845;59.422;17.930;2024-03-06T04:10:30;-0.70;99.90
44695;DHT22;32845;59.422;17.930;2024-03-06T04:15:00;-0.80;99.90
44695;DHT22;32845;59.422;17.930;2024-03-06T04:19:31;-0.70;99.90
44695;DHT22;32845;59.422;17.930;2024-03-06T04:24:02;-0.70;99.90
44695;DHT22;32845;59.422;17.930;2024-03-06T04:28:32;-0.80;99.90
44695;DHT22;32845;59.422;17.930;2024-03-06T04:33:03;-0.70;99.90
44695;DHT22;32845;59.422;17.930;2024-03-06T04:37:35;-0.70;99.90
44695;DHT22;32845;59.422;17.930;2024-03-06T04:42:05;-0.80;99.90
44695;DHT22;32845;59.422;17.930;2024-03-06T04:46:36;-0.80;99.90
44695;DHT22;32845;59.422;17.930;2024-03-06T04:51:07;-0.80;99.90
44695;DHT22;32845;59.422;17.930;2024-03-06T04:55:40;-0.70;99.90
44695;DHT22;32845;59.422;17.930;2024-03-06T05:00:12;-0.70;99.90
44695;DHT22;32845;59.422;17.930;2024-03-06T05:04:43;-0.70;99.90
44695;DHT22;32845;59.422;17.930;2024-03-06T05:09:13;-0.70;99.90
44695;DHT22;32845;59.422;17.930;2024-03-06T05:13:45;-0.70;99.90
44695;DHT22;32845;59.422;17.930;2024-03-06T05:18:17;-0.60;99.90
44695;DHT22;32845;59.422;17.930;2024-03-06T05:22:47;-0.60;99.90
44695;DHT22;32845;59.422;17.930;2024-03-06T05:27:18;-0.70;99.90
44695;DHT22;32845;59.422;17.930;2024-03-06T05:31:48;-0.60;99.90
44695;DHT22;32845;59.422;17.930;2024-03-06T05:36:19;-0.60;99.90
44695;DHT22;32845;59.422;17.930;2024-03-06T05:40:50;-0.60;99.90
44695;DHT22;32845;59.422;17.930;2024-03-06T05:45:20;-0.60;99.90
44695;DHT22;32845;59.422;17.930;2024-03-06T05:49:51;-0.60;99.90
44695;DHT22;32845;59.422;17.930;2024-03-06T05:54:22;-0.60;99.90
44695;DHT22;32845;59.422;17.930;2024-03-06T05:58:53;-0.60;99.90
44695;DHT22;32845;59.422;17.930;2024-03-06T06:03:25;-0.50;99.90
44695;DHT22;32845;59.422;17.930;2024-03-06T06:07:55;-0.50;99.90
44695;DHT22;32845;59.422;17.930;2024-03-06T06:12:26;-0.50;99.90
44695;DHT22;32845;59.422;17.930;2024-03-06T06:16:57;-0.50;99.90
44695;DHT22;32845;59.422;17.930;2024-03-06T06:21:27;-0.40;99.90
44695;DHT22;32845;59.422;17.930;2024-03-06T06:25:58;-0.40;99.90
44695;DHT22;32845;59.422;17.930;2024-03-06T06:30:29;-0.40;99.90
44695;DHT22;32845;59.422;17.930;2024-03-06T06:35:00;-0.40;99.90
44695;DHT22;32845;59.422;17.930;2024-03-06T06:39:31;-0.40;99.90
44695;DHT22;32845;59.422;17.930;2024-03-06T06:44:04;-0.40;99.90
44695;DHT22;32845;59.422;17.930;2024-03-06T06:48:35;-0.30;99.90
44695;DHT22;32845;59.422;17.930;2024-03-06T06:53:06;-0.30;99.90
44695;DHT22;32845;59.422;17.930;2024-03-06T06:57:36;-0.30;99.90
44695;DHT22;32845;59.422;17.930;2024-03-06T07:02:07;-0.30;99.90
44695;DHT22;32845;59.422;17.930;2024-03-06T07:06:38;-0.20;99.90
44695;DHT22;32845;59.422;17.930;2024-03-06T07:11:08;-0.20;99.90
44695;DHT22;32845;59.422;17.930;2024-03-06T07:15:39;-0.10;99.90
44695;DHT22;32845;59.422;17.930;2024-03-06T07:20:09;-0.10;99.90
44695;DHT22;32845;59.422;17.930;2024-03-06T07:24:40;-0.10;99.90
44695;DHT22;32845;59.422;17.930;2024-03-06T07:29:11;0.00;99.90
44695;DHT22;32845;59.422;17.930;2024-03-06T07:33:45;0.00;99.90
44695;DHT22;32845;59.422;17.930;2024-03-06T07:38:15;0.00;99.90
44695;DHT22;32845;59.422;17.930;2024-03-06T07:42:46;0.10;99.90
44695;DHT22;32845;59.422;17.930;2024-03-06T07:47:16;0.10;99.90
44695;DHT22;32845;59.422;17.930;2024-03-06T07:51:47;0.20;99.90
44695;DHT22;32845;59.422;17.930;2024-03-06T07:56:18;0.20;99.90
44695;DHT22;32845;59.422;17.930;2024-03-06T08:00:49;0.30;99.90
44695;DHT22;32845;59.422;17.930;2024-03-06T08:05:19;0.40;99.90
44695;DHT22;32845;59.422;17.930;2024-03-06T08:09:51;0.40;99.90
44695;DHT22;32845;59.422;17.930;2024-03-06T08:14:22;0.40;99.90
44695;DHT22;32845;59.422;17.930;2024-03-06T08:18:55;0.40;99.90
44695;DHT22;32845;59.422;17.930;2024-03-06T08:23:27;0.50;99.90
44695;DHT22;32845;59.422;17.930;2024-03-06T08:27:57;0.50;99.90
44695;DHT22;32845;59.422;17.930;2024-03-06T08:32:28;0.60;99.90
44695;DHT22;32845;59.422;17.930;2024-03-06T08:36:59;0.70;99.90
44695;DHT22;32845;59.422;17.930;2024-03-06T08:41:30;0.70;99.90
44695;DHT22;32845;59.422;17.930;2024-03-06T08:46:01;0.80;99.90
44695;DHT22;32845;59.422;17.930;2024-03-06T08:50:32;0.90;99.90
44695;DHT22;32845;59.422;17.930;2024-03-06T08:55:03;1.00;99.90
44695;DHT22;32845;59.422;17.930;2024-03-06T08:59:37;1.00;99.90
44695;DHT22;32845;59.422;17.930;2024-03-06T09:04:08;1.10;99.90
44695;DHT22;32845;59.422;17.930;2024-03-06T09:08:38;1.10;99.90
44695;DHT22;32845;59.422;17.930;2024-03-06T09:13:09;1.10;99.90
44695;DHT22;32845;59.422;17.930;2024-03-06T09:17:39;1.10;99.90
44695;DHT22;32845;59.422;17.930;2024-03-06T09:22:10;1.10;99.90
44695;DHT22;32845;59.422;17.930;2024-03-06T09:26:41;1.20;99.90
44695;DHT22;32845;59.422;17.930;2024-03-06T09:31:11;1.30;99.90
44695;DHT22;32845;59.422;17.930;2024-03-06T09:35:44;1.40;99.90
44695;DHT22;32845;59.422;17.930;2024-03-06T09:40:22;1.60;99.90
44695;DHT22;32845;59.422;17.930;2024-03-06T09:44:53;1.70;99.90
44695;DHT22;32845;59.422;17.930;2024-03-06T09:49:24;1.80;99.90
44695;DHT22;32845;59.422;17.930;2024-03-06T09:53:55;2.00;99.90
44695;DHT22;32845;59.422;17.930;2024-03-06T09:58:26;2.00;99.90
44695;DHT22;32845;59.422;17.930;2024-03-06T10:02:59;2.10;99.90
44695;DHT22;32845;59.422;17.930;2024-03-06T10:07:30;2.20;99.90
44695;DHT22;32845;59.422;17.930;2024-03-06T10:12:01;2.30;99.90
44695;DHT22;32845;59.422;17.930;2024-03-06T10:16:31;2.30;99.90
44695;DHT22;32845;59.422;17.930;2024-03-06T10:21:03;2.40;99.90
44695;DHT22;32845;59.422;17.930;2024-03-06T10:25:36;2.50;99.90
44695;DHT22;32845;59.422;17.930;2024-03-06T10:30:07;2.70;99.90
44695;DHT22;32845;59.422;17.930;2024-03-06T10:34:44;3.00;99.90
44695;DHT22;32845;59.422;17.930;2024-03-06T10:39:17;3.50;99.90
44695;DHT22;32845;59.422;17.930;2024-03-06T10:43:50;4.70;99.90
44695;DHT22;32845;59.422;17.930;2024-03-06T10:48:26;7.30;99.90
44695;DHT22;32845;59.422;17.930;2024-03-06T10:52:58;9.90;99.90
44695;DHT22;32845;59.422;17.930;2024-03-06T10:57:30;11.80;99.90
44695;DHT22;32845;59.422;17.930;2024-03-06T11:02:02;12.80;99.90
44695;DHT22;32845;59.422;17.930;2024-03-06T11:06:33;12.60;99.90
44695;DHT22;32845;59.422;17.930;2024-03-06T11:11:23;12.10;99.90
44695;DHT22;32845;59.422;17.930;2024-03-06T11:15:57;12.30;99.90
44695;DHT22;32845;59.422;17.930;2024-03-06T11:20:33;13.50;99.90
44695;DHT22;32845;59.422;17.930;2024-03-06T11:25:04;14.20;99.90
44695;DHT22;32845;59.422;17.930;2024-03-06T11:30:03;15.20;99.80
44695;DHT22;32845;59.422;17.930;2024-03-06T11:34:34;15.80;93.20
44695;DHT22;32845;59.422;17.930;2024-03-06T11:39:07;16.40;88.00
44695;DHT22;32845;59.422;17.930;2024-03-06T11:43:44;17.10;93.30
44695;DHT22;32845;59.422;17.930;2024-03-06T11:48:15;17.70;90.40
44695;DHT22;32845;59.422;17.930;2024-03-06T11:52:49;18.40;91.30
44695;DHT22;32845;59.422;17.930;2024-03-06T11:57:21;18.80;89.10
44695;DHT22;32845;59.422;17.930;2024-03-06T12:01:58;18.90;85.00
44695;DHT22;32845;59.422;17.930;2024-03-06T12:06:35;18.90;84.50
44695;DHT22;32845;59.422;17.930;2024-03-06T12:11:06;18.80;83.90
44695;DHT22;32845;59.422;17.930;2024-03-06T12:15:37;18.70;82.80
44695;DHT22;32845;59.422;17.930;2024-03-06T12:20:10;18.50;84.90
44695;DHT22;32845;59.422;17.930;2024-03-06T12:24:43;18.20;85.50
44695;DHT22;32845;59.422;17.930;2024-03-06T12:29:17;18.00;84.20
44695;DHT22;32845;59.422;17.930;2024-03-06T12:33:57;17.70;83.30
44695;DHT22;32845;59.422;17.930;2024-03-06T12:38:31;17.20;85.90
44695;DHT22;32845;59.422;17.930;2024-03-06T12:43:01;16.40;85.40
44695;DHT22;32845;59.422;17.930;2024-03-06T12:47:33;15.60;86.60
44695;DHT22;32845;59.422;17.930;2024-03-06T12:52:03;14.90;87.60
44695;DHT22;32845;59.422;17.930;2024-03-06T12:56:35;14.50;89.40
44695;DHT22;32845;59.422;17.930;2024-03-06T13:01:06;14.20;90.30
44695;DHT22;32845;59.422;17.930;2024-03-06T13:05:37;13.90;90.30
44695;DHT22;32845;59.422;17.930;2024-03-06T13:10:08;13.60;90.30
44695;DHT22;32845;59.422;17.930;2024-03-06T13:14:40;13.40;91.30
44695;DHT22;32845;59.422;17.930;2024-03-06T13:19:11;13.30;92.10
44695;DHT22;32845;59.422;17.930;2024-03-06T13:23:42;13.20;91.90
44695;DHT22;32845;59.422;17.930;2024-03-06T13:28:12;12.90;92.00
44695;DHT22;32845;59.422;17.930;2024-03-06T13:32:43;12.60;92.40
44695;DHT22;32845;59.422;17.930;2024-03-06T13:37:15;12.40;92.60
44695;DHT22;32845;59.422;17.930;2024-03-06T13:41:46;12.30;92.60
44695;DHT22;32845;59.422;17.930;2024-03-06T13:46:17;12.10;92.40
44695;DHT22;32845;59.422;17.930;2024-03-06T13:50:48;11.80;92.80
44695;DHT22;32845;59.422;17.930;2024-03-06T13:55:18;11.50;92.80
44695;DHT22;32845;59.422;17.930;2024-03-06T13:59:49;11.30;93.40
44695;DHT22;32845;59.422;17.930;2024-03-06T14:04:21;11.10;94.00
44695;DHT22;32845;59.422;17.930;2024-03-06T14:08:51;10.90;94.30
44695;DHT22;32845;59.422;17.930;2024-03-06T14:13:22;10.60;94.50
44695;DHT22;32845;59.422;17.930;2024-03-06T14:17:53;10.20;94.20
44695;DHT22;32845;59.422;17.930;2024-03-06T14:22:24;9.90;95.10
44695;DHT22;32845;59.422;17.930;2024-03-06T14:26:55;9.50;95.80
44695;DHT22;32845;59.422;17.930;2024-03-06T14:31:25;9.20;96.30
44695;DHT22;32845;59.422;17.930;2024-03-06T14:35:56;8.90;96.90
44695;DHT22;32845;59.422;17.930;2024-03-06T14:40:27;8.60;97.80
44695;DHT22;32845;59.422;17.930;2024-03-06T14:44:57;8.30;98.30
44695;DHT22;32845;59.422;17.930;2024-03-06T14:49:29;8.00;99.30
44695;DHT22;32845;59.422;17.930;2024-03-06T14:54:00;7.80;99.90
44695;DHT22;32845;59.422;17.930;2024-03-06T14:58:30;7.60;99.90
44695;DHT22;32845;59.422;17.930;2024-03-06T15:03:01;7.30;99.90
44695;DHT22;32845;59.422;17.930;2024-03-06T15:07:32;7.10;99.90
44695;DHT22;32845;59.422;17.930;2024-03-06T15:12:02;6.90;99.90
44695;DHT22;32845;59.422;17.930;2024-03-06T15:16:36;6.60;99.90
44695;DHT22;32845;59.422;17.930;2024-03-06T15:21:07;6.40;99.90
44695;DHT22;32845;59.422;17.930;2024-03-06T15:25:44;6.20;99.90
44695;DHT22;32845;59.422;17.930;2024-03-06T15:30:15;6.00;99.90
44695;DHT22;32845;59.422;17.930;2024-03-06T15:34:47;5.80;99.90
44695;DHT22;32845;59.422;17.930;2024-03-06T15:39:18;5.60;99.90
44695;DHT22;32845;59.422;17.930;2024-03-06T15:43:48;5.50;99.90
44695;DHT22;32845;59.422;17.930;2024-03-06T15:48:19;5.30;99.90
44695;DHT22;32845;59.422;17.930;2024-03-06T15:52:49;5.20;99.90
44695;DHT22;32845;59.422;17.930;2024-03-06T15:57:20;5.00;99.90
44695;DHT22;32845;59.422;17.930;2024-03-06T16:01:52;4.90;99.90
44695;DHT22;32845;59.422;17.930;2024-03-06T16:06:22;4.70;99.90
44695;DHT22;32845;59.422;17.930;2024-03-06T16:10:53;4.60;99.90
44695;DHT22;32845;59.422;17.930;2024-03-06T16:15:23;4.50;99.90
44695;DHT22;32845;59.422;17.930;2024-03-06T16:19:54;4.30;99.90
44695;DHT22;32845;59.422;17.930;2024-03-06T16:24:25;4.20;99.90
44695;DHT22;32845;59.422;17.930;2024-03-06T16:28:55;4.10;99.90
44695;DHT22;32845;59.422;17.930;2024-03-06T16:33:26;4.00;99.90
44695;DHT22;32845;59.422;17.930;2024-03-06T16:37:56;3.90;99.90
44695;DHT22;32845;59.422;17.930;2024-03-06T16:42:27;3.80;99.90
44695;DHT22;32845;59.422;17.930;2024-03-06T16:46:58;3.60;99.90
44695;DHT22;32845;59.422;17.930;2024-03-06T16:51:28;3.40;99.90
44695;DHT22;32845;59.422;17.930;2024-03-06T16:56:02;3.20;99.90
44695;DHT22;32845;59.422;17.930;2024-03-06T17:00:33;3.00;99.90
44695;DHT22;32845;59.422;17.930;2024-03-06T17:05:03;2.90;99.90
44695;DHT22;32845;59.422;17.930;2024-03-06T17:09:37;2.80;99.90
44695;DHT22;32845;59.422;17.930;2024-03-06T17:14:08;2.70;99.90
44695;DHT22;32845;59.422;17.930;2024-03-06T17:18:38;2.50;99.90
44695;DHT22;32845;59.422;17.930;2024-03-06T17:23:09;2.40;99.90
44695;DHT22;32845;59.422;17.930;2024-03-06T17:27:39;2.30;99.90
44695;DHT22;32845;59.422;17.930;2024-03-06T17:32:10;2.10;99.90
44695;DHT22;32845;59.422;17.930;2024-03-06T17:36:41;2.00;99.90
44695;DHT22;32845;59.422;17.930;2024-03-06T17:41:16;1.80;99.90
44695;DHT22;32845;59.422;17.930;2024-03-06T17:45:47;1.70;99.90
44695;DHT22;32845;59.422;17.930;2024-03-06T17:50:18;1.60;99.90
44695;DHT22;32845;59.422;17.930;2024-03-06T17:54:48;1.50;99.90
44695;DHT22;32845;59.422;17.930;2024-03-06T17:59:19;1.30;99.90
44695;DHT22;32845;59.422;17.930;2024-03-06T18:03:50;1.30;99.90
44695;DHT22;32845;59.422;17.930;2024-03-06T18:08:21;1.20;99.90
44695;DHT22;32845;59.422;17.930;2024-03-06T18:12:51;1.00;99.90
44695;DHT22;32845;59.422;17.930;2024-03-06T18:17:22;0.90;99.90
44695;DHT22;32845;59.422;17.930;2024-03-06T18:21:54;0.80;99.90
44695;DHT22;32845;59.422;17.930;2024-03-06T18:26:25;0.70;99.90
44695;DHT22;32845;59.422;17.930;2024-03-06T18:30:55;0.70;99.90
44695;DHT22;32845;59.422;17.930;2024-03-06T18:35:26;0.60;99.90
44695;DHT22;32845;59.422;17.930;2024-03-06T18:39:56;0.50;99.90
44695;DHT22;32845;59.422;17.930;2024-03-06T18:44:27;0.50;99.90
44695;DHT22;32845;59.422;17.930;2024-03-06T18:48:58;0.50;99.90
44695;DHT22;32845;59.422;17.930;2024-03-06T18:53:29;0.40;99.90
44695;DHT22;32845;59.422;17.930;2024-03-06T18:57:59;0.30;99.90
44695;DHT22;32845;59.422;17.930;2024-03-06T19:02:30;0.20;99.90
44695;DHT22;32845;59.422;17.930;2024-03-06T19:07:01;0.10;99.90
44695;DHT22;32845;59.422;17.930;2024-03-06T19:11:32;0.10;99.90
44695;DHT22;32845;59.422;17.930;2024-03-06T19:16:03;0.10;99.90
44695;DHT22;32845;59.422;17.930;2024-03-06T19:20:33;0.00;99.90
44695;DHT22;32845;59.422;17.930;2024-03-06T19:25:06;-0.10;99.90
44695;DHT22;32845;59.422;17.930;2024-03-06T19:29:37;-0.10;99.90
44695;DHT22;32845;59.422;17.930;2024-03-06T19:34:08;-0.20;99.90
44695;DHT22;32845;59.422;17.930;2024-03-06T19:38:40;-0.30;99.90
44695;DHT22;32845;59.422;17.930;2024-03-06T19:43:10;-0.30;99.90
44695;DHT22;32845;59.422;17.930;2024-03-06T19:47:42;-0.40;99.90
44695;DHT22;32845;59.422;17.930;2024-03-06T19:52:12;-0.50;99.90
44695;DHT22;32845;59.422;17.930;2024-03-06T19:56:43;-0.60;99.90
44695;DHT22;32845;59.422;17.930;2024-03-06T20:01:14;-0.60;99.90
44695;DHT22;32845;59.422;17.930;2024-03-06T20:05:44;-0.70;99.90
44695;DHT22;32845;59.422;17.930;2024-03-06T20:10:15;-0.80;99.90
44695;DHT22;32845;59.422;17.930;2024-03-06T20:14:46;-0.80;99.90
44695;DHT22;32845;59.422;17.930;2024-03-06T20:19:16;-0.90;99.90
44695;DHT22;32845;59.422;17.930;2024-03-06T20:23:50;-0.90;99.90
44695;DHT22;32845;59.422;17.930;2024-03-06T20:28:21;-1.00;99.90
44695;DHT22;32845;59.422;17.930;2024-03-06T20:32:52;-1.00;99.90
44695;DHT22;32845;59.422;17.930;2024-03-06T20:37:22;-1.10;99.90
44695;DHT22;32845;59.422;17.930;2024-03-06T20:41:53;-1.10;99.90
44695;DHT22;32845;59.422;17.930;2024-03-06T20:46:24;-1.10;99.90
44695;DHT22;32845;59.422;17.930;2024-03-06T20:50:55;-1.20;99.90
44695;DHT22;32845;59.422;17.930;2024-03-06T20:55:26;-1.30;99.90
44695;DHT22;32845;59.422;17.930;2024-03-06T20:59:59;-1.30;99.90
44695;DHT22;32845;59.422;17.930;2024-03-06T21:04:29;-1.30;99.90
44695;DHT22;32845;59.422;17.930;2024-03-06T21:09:00;-1.40;99.90
44695;DHT22;32845;59.422;17.930;2024-03-06T21:13:31;-1.50;99.90
44695;DHT22;32845;59.422;17.930;2024-03-06T21:18:01;-1.50;99.90
44695;DHT22;32845;59.422;17.930;2024-03-06T21:22:32;-1.60;99.90
44695;DHT22;32845;59.422;17.930;2024-03-06T21:27:03;-1.70;99.90
44695;DHT22;32845;59.422;17.930;2024-03-06T21:31:34;-1.70;99.90
44695;DHT22;32845;59.422;17.930;2024-03-06T21:36:05;-1.80;99.90
44695;DHT22;32845;59.422;17.930;2024-03-06T21:40:37;-1.80;99.90
44695;DHT22;32845;59.422;17.930;2024-03-06T21:45:08;-1.90;99.90
44695;DHT22;32845;59.422;17.930;2024-03-06T21:49:39;-2.00;99.90
44695;DHT22;32845;59.422;17.930;2024-03-06T21:54:09;-2.10;99.90
44695;DHT22;32845;59.422;17.930;2024-03-06T21:58:40;-2.10;99.90
44695;DHT22;32845;59.422;17.930;2024-03-06T22:03:10;-2.10;99.90
44695;DHT22;32845;59.422;17.930;2024-03-06T22:07:41;-2.20;99.90
44695;DHT22;32845;59.422;17.930;2024-03-06T22:12:11;-2.20;99.90
44695;DHT22;32845;59.422;17.930;2024-03-06T22:16:43;-2.30;99.90
44695;DHT22;32845;59.422;17.930;2024-03-06T22:21:14;-2.30;99.90
44695;DHT22;32845;59.422;17.930;2024-03-06T22:25:45;-2.30;99.90
44695;DHT22;32845;59.422;17.930;2024-03-06T22:30:16;-2.30;99.90
44695;DHT22;32845;59.422;17.930;2024-03-06T22:34:46;-2.40;99.90
44695;DHT22;32845;59.422;17.930;2024-03-06T22:39:17;-2.40;99.90
44695;DHT22;32845;59.422;17.930;2024-03-06T22:43:49;-2.50;99.90
44695;DHT22;32845;59.422;17.930;2024-03-06T22:48:20;-2.60;99.90
44695;DHT22;32845;59.422;17.930;2024-03-06T22:52:50;-2.60;99.90
44695;DHT22;32845;59.422;17.930;2024-03-06T22:57:21;-2.60;99.90
44695;DHT22;32845;59.422;17.930;2024-03-06T23:01:51;-2.60;99.90
44695;DHT22;32845;59.422;17.930;2024-03-06T23:06:22;-2.70;99.90
44695;DHT22;32845;59.422;17.930;2024-03-06T23:10:53;-2.70;99.90
44695;DHT22;32845;59.422;17.930;2024-03-06T23:15:26;-2.80;99.90
44695;DHT22;32845;59.422;17.930;2024-03-06T23:19:58;-2.80;99.90
44695;DHT22;32845;59.422;17.930;2024-03-06T23:24:29;-2.90;99.90
44695;DHT22;32845;59.422;17.930;2024-03-06T23:28:59;-2.90;99.90
44695;DHT22;32845;59.422;17.930;2024-03-06T23:33:30;-2.90;99.90
44695;DHT22;32845;59.422;17.930;2024-03-06T23:38:00;-3.00;99.90
44695;DHT22;32845;59.422;17.930;2024-03-06T23:42:31;-3.00;99.90
44695;DHT22;32845;59.422;17.930;2024-03-06T23:47:02;-3.00;99.90
44695;DHT22;32845;59.422;17.930;2024-03-06T23:51:33;-3.10;99.90
44695;DHT22;32845;59.422;17.930;2024-03-06T23:56:04;-3.10;99.90
